sensor_id;sensor_type;location;lat;lon;timestamp;P1;durP1;ratioP1;P2;durP2;ratioP2
1475;SDS011;730;48.870;12.542;2022-12-15T00:01:32;23.30;;;18.35;;
1475;SDS011;730;48.870;12.542;2022-12-15T00:04:17;25.08;;;18.48;;
1475;SDS011;730;48.870;12.542;2022-12-15T00:07:02;26.70;;;19.08;;
1475;SDS011;730;48.870;12.542;2022-12-15T00:09:47;25.73;;;18.45;;
1475;SDS011;730;48.870;12.542;2022-12-15T00:12:31;25.00;;;19.00;;
1475;SDS011;730;48.870;12.542;2022-12-15T00:15:16;22.45;;;17.65;;
1475;SDS011;730;48.870;12.542;2022-12-15T00:18:04;22.90;;;16.85;;
1475;SDS011;730;48.870;12.542;2022-12-15T00:20:49;24.33;;;18.80;;
1475;SDS011;730;48.870;12.542;2022-12-15T00:23:34;24.67;;;18.25;;
1475;SDS011;730;48.870;12.542;2022-12-15T00:26:19;23.75;;;18.45;;
1475;SDS011;730;48.870;12.542;2022-12-15T00:29:03;23.88;;;16.92;;
1475;SDS011;730;48.870;12.542;2022-12-15T00:31:48;25.95;;;19.08;;
1475;SDS011;730;48.870;12.542;2022-12-15T00:34:33;22.33;;;16.25;;
1475;SDS011;730;48.870;12.542;2022-12-15T00:37:18;22.90;;;17.40;;
1475;SDS011;730;48.870;12.542;2022-12-15T00:40:02;26.75;;;17.63;;
1475;SDS011;730;48.870;12.542;2022-12-15T00:42:29;27.67;;;19.30;;
1475;SDS011;730;48.870;12.542;2022-12-15T00:44:55;24.05;;;17.67;;
1475;SDS011;730;48.870;12.542;2022-12-15T00:47:22;25.88;;;18.50;;
1475;SDS011;730;48.870;12.542;2022-12-15T00:49:48;22.20;;;16.85;;
1475;SDS011;730;48.870;12.542;2022-12-15T00:52:33;26.02;;;18.15;;
1475;SDS011;730;48.870;12.542;2022-12-15T00:55:18;23.55;;;18.58;;
1475;SDS011;730;48.870;12.542;2022-12-15T00:58:03;22.92;;;18.88;;
1475;SDS011;730;48.870;12.542;2022-12-15T01:00:47;24.90;;;18.85;;
1475;SDS011;730;48.870;12.542;2022-12-15T01:03:32;22.75;;;16.60;;
1475;SDS011;730;48.870;12.542;2022-12-15T01:06:17;23.23;;;19.10;;
1475;SDS011;730;48.870;12.542;2022-12-15T01:09:04;24.27;;;17.85;;
1475;SDS011;730;48.870;12.542;2022-12-15T01:11:53;26.13;;;18.48;;
1475;SDS011;730;48.870;12.542;2022-12-15T01:14:40;24.58;;;18.20;;
1475;SDS011;730;48.870;12.542;2022-12-15T01:17:25;27.08;;;17.02;;
1475;SDS011;730;48.870;12.542;2022-12-15T01:20:10;24.02;;;18.33;;
1475;SDS011;730;48.870;12.542;2022-12-15T01:22:58;24.55;;;17.80;;
1475;SDS011;730;48.870;12.542;2022-12-15T01:25:25;24.38;;;17.52;;
1475;SDS011;730;48.870;12.542;2022-12-15T01:27:52;24.17;;;17.98;;
1475;SDS011;730;48.870;12.542;2022-12-15T01:30:19;24.58;;;19.10;;
1475;SDS011;730;48.870;12.542;2022-12-15T01:32:50;24.80;;;18.10;;
1475;SDS011;730;48.870;12.542;2022-12-15T01:35:18;23.77;;;19.67;;
1475;SDS011;730;48.870;12.542;2022-12-15T01:37:45;25.33;;;20.20;;
1475;SDS011;730;48.870;12.542;2022-12-15T01:40:12;27.75;;;19.48;;
1475;SDS011;730;48.870;12.542;2022-12-15T01:42:59;21.75;;;17.00;;
1475;SDS011;730;48.870;12.542;2022-12-15T01:47:52;24.60;;;18.17;;
1475;SDS011;730;48.870;12.542;2022-12-15T01:50:50;21.48;;;16.85;;
1475;SDS011;730;48.870;12.542;2022-12-15T01:53:24;23.75;;;18.70;;
1475;SDS011;730;48.870;12.542;2022-12-15T01:55:51;31.85;;;20.85;;
1475;SDS011;730;48.870;12.542;2022-12-15T01:58:18;25.55;;;20.38;;
1475;SDS011;730;48.870;12.542;2022-12-15T02:00:45;25.83;;;19.52;;
1475;SDS011;730;48.870;12.542;2022-12-15T02:03:11;24.52;;;18.90;;
1475;SDS011;730;48.870;12.542;2022-12-15T02:05:37;22.73;;;18.30;;
1475;SDS011;730;48.870;12.542;2022-12-15T02:08:06;28.80;;;18.45;;
1475;SDS011;730;48.870;12.542;2022-12-15T02:10:44;22.73;;;18.13;;
1475;SDS011;730;48.870;12.542;2022-12-15T02:13:32;28.95;;;20.20;;
1475;SDS011;730;48.870;12.542;2022-12-15T02:16:13;24.80;;;18.83;;
1475;SDS011;730;48.870;12.542;2022-12-15T02:21:38;28.27;;;19.35;;
1475;SDS011;730;48.870;12.542;2022-12-15T02:32:34;25.42;;;19.95;;
1475;SDS011;730;48.870;12.542;2022-12-15T02:35:08;27.13;;;19.80;;
1475;SDS011;730;48.870;12.542;2022-12-15T02:37:41;24.60;;;19.50;;
1475;SDS011;730;48.870;12.542;2022-12-15T02:40:09;28.38;;;19.80;;
1475;SDS011;730;48.870;12.542;2022-12-15T02:42:42;27.23;;;18.98;;
1475;SDS011;730;48.870;12.542;2022-12-15T02:45:15;27.63;;;19.38;;
1475;SDS011;730;48.870;12.542;2022-12-15T02:50:49;26.48;;;18.23;;
1475;SDS011;730;48.870;12.542;2022-12-15T02:53:36;29.10;;;18.83;;
1475;SDS011;730;48.870;12.542;2022-12-15T03:01:39;28.10;;;17.52;;
1475;SDS011;730;48.870;12.542;2022-12-15T03:04:08;29.77;;;18.45;;
1475;SDS011;730;48.870;12.542;2022-12-15T03:06:36;30.08;;;18.95;;
1475;SDS011;730;48.870;12.542;2022-12-15T03:09:02;26.65;;;18.45;;
1475;SDS011;730;48.870;12.542;2022-12-15T03:11:28;30.42;;;19.75;;
1475;SDS011;730;48.870;12.542;2022-12-15T03:13:55;33.47;;;19.35;;
1475;SDS011;730;48.870;12.542;2022-12-15T03:16:21;29.95;;;20.25;;
1475;SDS011;730;48.870;12.542;2022-12-15T03:18:48;27.58;;;20.10;;
1475;SDS011;730;48.870;12.542;2022-12-15T03:21:14;27.45;;;18.40;;
1475;SDS011;730;48.870;12.542;2022-12-15T03:23:40;31.02;;;20.08;;
1475;SDS011;730;48.870;12.542;2022-12-15T03:26:06;33.92;;;19.95;;
1475;SDS011;730;48.870;12.542;2022-12-15T03:28:32;29.73;;;19.42;;
1475;SDS011;730;48.870;12.542;2022-12-15T03:30:58;26.83;;;19.60;;
1475;SDS011;730;48.870;12.542;2022-12-15T03:33:25;31.75;;;21.75;;
1475;SDS011;730;48.870;12.542;2022-12-15T03:35:51;35.72;;;22.05;;
1475;SDS011;730;48.870;12.542;2022-12-15T03:38:17;32.35;;;19.98;;
1475;SDS011;730;48.870;12.542;2022-12-15T03:40:43;33.65;;;20.83;;
1475;SDS011;730;48.870;12.542;2022-12-15T03:43:09;31.65;;;19.58;;
1475;SDS011;730;48.870;12.542;2022-12-15T03:45:35;28.95;;;19.33;;
1475;SDS011;730;48.870;12.542;2022-12-15T03:48:01;28.48;;;20.48;;
1475;SDS011;730;48.870;12.542;2022-12-15T03:50:28;32.20;;;20.98;;
1475;SDS011;730;48.870;12.542;2022-12-15T03:52:58;27.45;;;18.95;;
1475;SDS011;730;48.870;12.542;2022-12-15T03:55:26;28.48;;;20.30;;
1475;SDS011;730;48.870;12.542;2022-12-15T03:57:53;27.90;;;20.40;;
1475;SDS011;730;48.870;12.542;2022-12-15T04:00:20;25.15;;;18.70;;
1475;SDS011;730;48.870;12.542;2022-12-15T04:02:47;27.65;;;19.20;;
1475;SDS011;730;48.870;12.542;2022-12-15T04:05:15;33.45;;;20.20;;
1475;SDS011;730;48.870;12.542;2022-12-15T04:07:53;29.33;;;18.05;;
1475;SDS011;730;48.870;12.542;2022-12-15T04:10:21;31.75;;;20.75;;
1475;SDS011;730;48.870;12.542;2022-12-15T04:12:55;32.58;;;21.55;;
1475;SDS011;730;48.870;12.542;2022-12-15T04:15:22;32.80;;;21.33;;
1475;SDS011;730;48.870;12.542;2022-12-15T04:17:48;35.90;;;21.08;;
1475;SDS011;730;48.870;12.542;2022-12-15T04:20:14;33.70;;;20.55;;
1475;SDS011;730;48.870;12.542;2022-12-15T04:22:42;31.65;;;20.60;;
1475;SDS011;730;48.870;12.542;2022-12-15T04:25:11;30.73;;;21.05;;
1475;SDS011;730;48.870;12.542;2022-12-15T04:28:06;37.05;;;22.00;;
1475;SDS011;730;48.870;12.542;2022-12-15T04:30:59;35.95;;;22.00;;
1475;SDS011;730;48.870;12.542;2022-12-15T04:33:50;33.03;;;20.65;;
1475;SDS011;730;48.870;12.542;2022-12-15T04:36:37;28.95;;;19.25;;
1475;SDS011;730;48.870;12.542;2022-12-15T04:39:25;29.58;;;18.98;;
1475;SDS011;730;48.870;12.542;2022-12-15T04:42:10;28.58;;;19.38;;
1475;SDS011;730;48.870;12.542;2022-12-15T04:44:58;34.97;;;21.08;;
1475;SDS011;730;48.870;12.542;2022-12-15T04:47:48;31.13;;;22.40;;
1475;SDS011;730;48.870;12.542;2022-12-15T04:50:32;39.58;;;20.85;;
1475;SDS011;730;48.870;12.542;2022-12-15T04:53:18;35.58;;;21.75;;
1475;SDS011;730;48.870;12.542;2022-12-15T04:56:13;31.50;;;21.45;;
1475;SDS011;730;48.870;12.542;2022-12-15T04:58:58;35.55;;;22.65;;
1475;SDS011;730;48.870;12.542;2022-12-15T05:01:43;38.60;;;22.52;;
1475;SDS011;730;48.870;12.542;2022-12-15T05:04:28;35.58;;;20.52;;
1475;SDS011;730;48.870;12.542;2022-12-15T05:07:13;33.65;;;22.00;;
1475;SDS011;730;48.870;12.542;2022-12-15T05:10:00;31.90;;;21.30;;
1475;SDS011;730;48.870;12.542;2022-12-15T05:12:45;35.00;;;20.65;;
1475;SDS011;730;48.870;12.542;2022-12-15T05:15:32;27.38;;;19.92;;
1475;SDS011;730;48.870;12.542;2022-12-15T05:18:17;31.02;;;21.27;;
1475;SDS011;730;48.870;12.542;2022-12-15T05:21:03;34.00;;;21.65;;
1475;SDS011;730;48.870;12.542;2022-12-15T05:23:47;32.22;;;22.02;;
1475;SDS011;730;48.870;12.542;2022-12-15T05:26:32;29.27;;;20.33;;
1475;SDS011;730;48.870;12.542;2022-12-15T05:29:17;32.45;;;20.23;;
1475;SDS011;730;48.870;12.542;2022-12-15T05:32:02;34.80;;;21.63;;
1475;SDS011;730;48.870;12.542;2022-12-15T05:34:32;33.00;;;22.35;;
1475;SDS011;730;48.870;12.542;2022-12-15T05:37:00;32.30;;;21.73;;
1475;SDS011;730;48.870;12.542;2022-12-15T05:39:27;37.03;;;22.13;;
1475;SDS011;730;48.870;12.542;2022-12-15T05:41:54;26.95;;;19.88;;
1475;SDS011;730;48.870;12.542;2022-12-15T05:44:21;30.80;;;21.40;;
1475;SDS011;730;48.870;12.542;2022-12-15T05:46:48;30.15;;;19.52;;
1475;SDS011;730;48.870;12.542;2022-12-15T05:49:14;37.08;;;21.90;;
1475;SDS011;730;48.870;12.542;2022-12-15T05:51:42;34.38;;;22.80;;
1475;SDS011;730;48.870;12.542;2022-12-15T05:54:10;31.30;;;21.30;;
1475;SDS011;730;48.870;12.542;2022-12-15T05:56:41;32.92;;;21.58;;
1475;SDS011;730;48.870;12.542;2022-12-15T05:59:07;28.42;;;20.27;;
1475;SDS011;730;48.870;12.542;2022-12-15T06:01:33;30.65;;;20.30;;
1475;SDS011;730;48.870;12.542;2022-12-15T06:04:00;29.92;;;19.48;;
1475;SDS011;730;48.870;12.542;2022-12-15T06:06:28;34.78;;;21.10;;
1475;SDS011;730;48.870;12.542;2022-12-15T06:08:54;33.10;;;23.98;;
1475;SDS011;730;48.870;12.542;2022-12-15T06:11:21;31.17;;;21.50;;
1475;SDS011;730;48.870;12.542;2022-12-15T06:13:47;29.80;;;19.08;;
1475;SDS011;730;48.870;12.542;2022-12-15T06:16:17;31.10;;;18.75;;
1475;SDS011;730;48.870;12.542;2022-12-15T06:18:46;30.33;;;20.02;;
1475;SDS011;730;48.870;12.542;2022-12-15T06:21:18;33.15;;;21.60;;
1475;SDS011;730;48.870;12.542;2022-12-15T06:23:48;34.30;;;21.60;;
1475;SDS011;730;48.870;12.542;2022-12-15T06:26:17;34.15;;;21.42;;
1475;SDS011;730;48.870;12.542;2022-12-15T06:28:43;31.77;;;21.33;;
1475;SDS011;730;48.870;12.542;2022-12-15T06:31:11;32.30;;;21.35;;
1475;SDS011;730;48.870;12.542;2022-12-15T06:33:38;33.38;;;21.75;;
1475;SDS011;730;48.870;12.542;2022-12-15T06:36:09;34.47;;;23.83;;
1475;SDS011;730;48.870;12.542;2022-12-15T06:38:37;32.25;;;20.95;;
1475;SDS011;730;48.870;12.542;2022-12-15T06:41:05;35.80;;;23.00;;
1475;SDS011;730;48.870;12.542;2022-12-15T06:43:32;32.72;;;21.77;;
1475;SDS011;730;48.870;12.542;2022-12-15T06:45:59;34.53;;;20.38;;
1475;SDS011;730;48.870;12.542;2022-12-15T06:48:26;31.70;;;21.17;;
1475;SDS011;730;48.870;12.542;2022-12-15T06:50:52;32.58;;;20.27;;
1475;SDS011;730;48.870;12.542;2022-12-15T06:53:20;34.17;;;21.67;;
1475;SDS011;730;48.870;12.542;2022-12-15T06:55:47;31.55;;;20.67;;
1475;SDS011;730;48.870;12.542;2022-12-15T06:58:14;28.95;;;21.80;;
1475;SDS011;730;48.870;12.542;2022-12-15T07:00:41;30.02;;;20.38;;
1475;SDS011;730;48.870;12.542;2022-12-15T07:03:14;29.95;;;19.05;;
1475;SDS011;730;48.870;12.542;2022-12-15T07:05:42;32.38;;;21.33;;
1475;SDS011;730;48.870;12.542;2022-12-15T07:08:13;30.50;;;21.40;;
1475;SDS011;730;48.870;12.542;2022-12-15T07:10:43;33.00;;;21.20;;
1475;SDS011;730;48.870;12.542;2022-12-15T07:13:10;35.30;;;19.30;;
1475;SDS011;730;48.870;12.542;2022-12-15T07:15:36;34.63;;;21.40;;
1475;SDS011;730;48.870;12.542;2022-12-15T07:18:03;32.05;;;22.15;;
1475;SDS011;730;48.870;12.542;2022-12-15T07:20:29;34.63;;;23.02;;
1475;SDS011;730;48.870;12.542;2022-12-15T07:22:56;32.40;;;21.08;;
1475;SDS011;730;48.870;12.542;2022-12-15T07:25:22;31.00;;;20.95;;
1475;SDS011;730;48.870;12.542;2022-12-15T07:27:48;29.38;;;19.50;;
1475;SDS011;730;48.870;12.542;2022-12-15T07:30:14;32.35;;;21.25;;
1475;SDS011;730;48.870;12.542;2022-12-15T07:32:42;28.27;;;19.50;;
1475;SDS011;730;48.870;12.542;2022-12-15T07:35:09;31.98;;;20.17;;
1475;SDS011;730;48.870;12.542;2022-12-15T07:37:35;26.73;;;20.35;;
1475;SDS011;730;48.870;12.542;2022-12-15T07:40:01;28.85;;;19.63;;
1475;SDS011;730;48.870;12.542;2022-12-15T07:42:30;32.80;;;20.95;;
1475;SDS011;730;48.870;12.542;2022-12-15T07:44:57;30.45;;;20.33;;
1475;SDS011;730;48.870;12.542;2022-12-15T07:47:23;30.67;;;20.23;;
1475;SDS011;730;48.870;12.542;2022-12-15T07:49:49;29.02;;;21.77;;
1475;SDS011;730;48.870;12.542;2022-12-15T07:52:15;34.47;;;21.85;;
1475;SDS011;730;48.870;12.542;2022-12-15T07:54:41;35.85;;;22.48;;
1475;SDS011;730;48.870;12.542;2022-12-15T07:57:10;31.38;;;23.17;;
1475;SDS011;730;48.870;12.542;2022-12-15T07:59:36;34.15;;;23.20;;
1475;SDS011;730;48.870;12.542;2022-12-15T08:02:02;38.53;;;24.35;;
1475;SDS011;730;48.870;12.542;2022-12-15T08:04:29;30.30;;;21.60;;
1475;SDS011;730;48.870;12.542;2022-12-15T08:06:56;36.33;;;21.83;;
1475;SDS011;730;48.870;12.542;2022-12-15T08:09:23;31.83;;;22.10;;
1475;SDS011;730;48.870;12.542;2022-12-15T08:11:49;32.70;;;21.33;;
1475;SDS011;730;48.870;12.542;2022-12-15T08:14:16;34.78;;;22.15;;
1475;SDS011;730;48.870;12.542;2022-12-15T08:16:42;34.72;;;23.95;;
1475;SDS011;730;48.870;12.542;2022-12-15T08:19:10;34.72;;;23.00;;
1475;SDS011;730;48.870;12.542;2022-12-15T08:21:40;34.00;;;22.20;;
1475;SDS011;730;48.870;12.542;2022-12-15T08:24:08;33.60;;;21.67;;
1475;SDS011;730;48.870;12.542;2022-12-15T08:26:34;37.75;;;25.17;;
1475;SDS011;730;48.870;12.542;2022-12-15T08:29:03;32.03;;;23.33;;
1475;SDS011;730;48.870;12.542;2022-12-15T08:31:30;31.65;;;21.60;;
1475;SDS011;730;48.870;12.542;2022-12-15T08:33:58;35.25;;;22.75;;
1475;SDS011;730;48.870;12.542;2022-12-15T08:36:26;39.25;;;24.52;;
1475;SDS011;730;48.870;12.542;2022-12-15T08:38:54;42.25;;;27.35;;
1475;SDS011;730;48.870;12.542;2022-12-15T08:41:23;31.33;;;23.42;;
1475;SDS011;730;48.870;12.542;2022-12-15T08:43:51;37.30;;;23.08;;
1475;SDS011;730;48.870;12.542;2022-12-15T08:46:25;34.03;;;25.85;;
1475;SDS011;730;48.870;12.542;2022-12-15T08:48:53;32.53;;;21.05;;
1475;SDS011;730;48.870;12.542;2022-12-15T08:51:20;34.22;;;22.40;;
1475;SDS011;730;48.870;12.542;2022-12-15T08:53:48;30.92;;;21.15;;
1475;SDS011;730;48.870;12.542;2022-12-15T08:56:16;31.05;;;21.40;;
1475;SDS011;730;48.870;12.542;2022-12-15T08:58:44;37.72;;;21.33;;
1475;SDS011;730;48.870;12.542;2022-12-15T09:01:16;31.55;;;21.00;;
1475;SDS011;730;48.870;12.542;2022-12-15T09:03:43;34.10;;;24.42;;
1475;SDS011;730;48.870;12.542;2022-12-15T09:06:13;34.50;;;20.98;;
1475;SDS011;730;48.870;12.542;2022-12-15T09:08:41;31.00;;;22.00;;
1475;SDS011;730;48.870;12.542;2022-12-15T09:11:07;37.92;;;24.73;;
1475;SDS011;730;48.870;12.542;2022-12-15T09:13:34;37.50;;;24.95;;
1475;SDS011;730;48.870;12.542;2022-12-15T09:16:01;32.40;;;22.17;;
1475;SDS011;730;48.870;12.542;2022-12-15T09:18:32;31.65;;;22.90;;
1475;SDS011;730;48.870;12.542;2022-12-15T09:21:02;34.58;;;24.45;;
1475;SDS011;730;48.870;12.542;2022-12-15T09:23:31;30.88;;;22.30;;
1475;SDS011;730;48.870;12.542;2022-12-15T09:26:19;35.22;;;22.02;;
1475;SDS011;730;48.870;12.542;2022-12-15T09:28:45;36.50;;;22.90;;
1475;SDS011;730;48.870;12.542;2022-12-15T09:31:16;32.83;;;22.40;;
1475;SDS011;730;48.870;12.542;2022-12-15T09:33:47;30.35;;;21.50;;
1475;SDS011;730;48.870;12.542;2022-12-15T09:36:15;29.85;;;21.73;;
1475;SDS011;730;48.870;12.542;2022-12-15T09:38:42;32.05;;;22.60;;
1475;SDS011;730;48.870;12.542;2022-12-15T09:43:43;43.05;;;32.67;;
1475;SDS011;730;48.870;12.542;2022-12-15T09:46:15;35.25;;;25.70;;
1475;SDS011;730;48.870;12.542;2022-12-15T09:48:48;34.22;;;22.55;;
1475;SDS011;730;48.870;12.542;2022-12-15T09:51:18;34.03;;;22.48;;
1475;SDS011;730;48.870;12.542;2022-12-15T09:53:47;31.38;;;21.80;;
1475;SDS011;730;48.870;12.542;2022-12-15T09:56:18;38.90;;;24.05;;
1475;SDS011;730;48.870;12.542;2022-12-15T09:58:54;31.83;;;22.80;;
1475;SDS011;730;48.870;12.542;2022-12-15T10:04:26;35.90;;;22.35;;
1475;SDS011;730;48.870;12.542;2022-12-15T10:07:01;34.65;;;23.25;;
1475;SDS011;730;48.870;12.542;2022-12-15T10:09:36;32.90;;;23.73;;
1475;SDS011;730;48.870;12.542;2022-12-15T10:12:10;34.05;;;24.30;;
1475;SDS011;730;48.870;12.542;2022-12-15T10:14:51;32.63;;;22.33;;
1475;SDS011;730;48.870;12.542;2022-12-15T10:18:01;31.02;;;23.58;;
1475;SDS011;730;48.870;12.542;2022-12-15T10:20:36;32.25;;;23.02;;
1475;SDS011;730;48.870;12.542;2022-12-15T10:23:12;32.28;;;23.52;;
1475;SDS011;730;48.870;12.542;2022-12-15T10:25:45;29.67;;;21.92;;
1475;SDS011;730;48.870;12.542;2022-12-15T10:31:26;30.27;;;21.50;;
1475;SDS011;730;48.870;12.542;2022-12-15T10:33:37;33.95;;;23.50;;
1475;SDS011;730;48.870;12.542;2022-12-15T10:36:10;35.58;;;23.50;;
1475;SDS011;730;48.870;12.542;2022-12-15T10:38:44;28.33;;;22.08;;
1475;SDS011;730;48.870;12.542;2022-12-15T10:43:44;32.55;;;21.48;;
1475;SDS011;730;48.870;12.542;2022-12-15T10:48:45;28.65;;;21.70;;
1475;SDS011;730;48.870;12.542;2022-12-15T10:51:14;33.55;;;22.42;;
1475;SDS011;730;48.870;12.542;2022-12-15T10:56:19;27.88;;;19.60;;
1475;SDS011;730;48.870;12.542;2022-12-15T10:58:49;31.38;;;22.55;;
1475;SDS011;730;48.870;12.542;2022-12-15T11:01:18;33.28;;;23.75;;
1475;SDS011;730;48.870;12.542;2022-12-15T11:03:48;32.75;;;24.52;;
1475;SDS011;730;48.870;12.542;2022-12-15T11:06:20;40.55;;;27.88;;
1475;SDS011;730;48.870;12.542;2022-12-15T11:08:49;36.88;;;25.95;;
1475;SDS011;730;48.870;12.542;2022-12-15T11:11:23;35.13;;;24.83;;
1475;SDS011;730;48.870;12.542;2022-12-15T11:14:14;32.83;;;22.73;;
1475;SDS011;730;48.870;12.542;2022-12-15T11:16:56;29.55;;;20.90;;
1475;SDS011;730;48.870;12.542;2022-12-15T11:19:35;30.88;;;22.90;;
1475;SDS011;730;48.870;12.542;2022-12-15T11:22:30;34.17;;;24.92;;
1475;SDS011;730;48.870;12.542;2022-12-15T11:25:15;34.22;;;24.52;;
1475;SDS011;730;48.870;12.542;2022-12-15T11:27:48;34.78;;;23.83;;
1475;SDS011;730;48.870;12.542;2022-12-15T11:30:23;39.63;;;28.48;;
1475;SDS011;730;48.870;12.542;2022-12-15T11:32:55;40.40;;;29.20;;
1475;SDS011;730;48.870;12.542;2022-12-15T11:35:29;64.28;;;45.13;;
1475;SDS011;730;48.870;12.542;2022-12-15T11:38:17;48.10;;;37.80;;
1475;SDS011;730;48.870;12.542;2022-12-15T11:40:53;35.92;;;26.92;;
1475;SDS011;730;48.870;12.542;2022-12-15T11:46:25;40.45;;;31.00;;
1475;SDS011;730;48.870;12.542;2022-12-15T11:51:43;48.75;;;34.65;;
1475;SDS011;730;48.870;12.542;2022-12-15T11:57:22;50.10;;;32.45;;
1475;SDS011;730;48.870;12.542;2022-12-15T12:00:19;37.92;;;27.92;;
1475;SDS011;730;48.870;12.542;2022-12-15T12:05:35;42.47;;;31.10;;
1475;SDS011;730;48.870;12.542;2022-12-15T12:09:07;33.08;;;25.02;;
1475;SDS011;730;48.870;12.542;2022-12-15T12:11:34;28.60;;;21.73;;
1475;SDS011;730;48.870;12.542;2022-12-15T12:17:52;46.60;;;30.90;;
1475;SDS011;730;48.870;12.542;2022-12-15T12:20:01;48.50;;;32.00;;
1475;SDS011;730;48.870;12.542;2022-12-15T12:22:39;41.58;;;28.35;;
1475;SDS011;730;48.870;12.542;2022-12-15T12:25:44;41.15;;;26.75;;
1475;SDS011;730;48.870;12.542;2022-12-15T12:28:18;34.17;;;23.05;;
1475;SDS011;730;48.870;12.542;2022-12-15T12:30:49;32.78;;;22.77;;
1475;SDS011;730;48.870;12.542;2022-12-15T12:36:10;41.20;;;26.70;;
1475;SDS011;730;48.870;12.542;2022-12-15T12:38:38;45.63;;;28.98;;
1475;SDS011;730;48.870;12.542;2022-12-15T12:43:59;31.02;;;21.80;;
1475;SDS011;730;48.870;12.542;2022-12-15T12:46:34;30.85;;;21.13;;
1475;SDS011;730;48.870;12.542;2022-12-15T12:49:07;33.83;;;24.25;;
1475;SDS011;730;48.870;12.542;2022-12-15T12:51:55;31.88;;;24.00;;
1475;SDS011;730;48.870;12.542;2022-12-15T12:57:45;29.45;;;22.92;;
1475;SDS011;730;48.870;12.542;2022-12-15T13:08:15;34.20;;;23.02;;
1475;SDS011;730;48.870;12.542;2022-12-15T13:10:45;32.20;;;22.17;;
1475;SDS011;730;48.870;12.542;2022-12-15T13:15:57;63.67;;;46.42;;
1475;SDS011;730;48.870;12.542;2022-12-15T13:19:00;53.20;;;39.90;;
1475;SDS011;730;48.870;12.542;2022-12-15T13:29:33;37.25;;;26.60;;
1475;SDS011;730;48.870;12.542;2022-12-15T13:32:01;33.42;;;25.77;;
1475;SDS011;730;48.870;12.542;2022-12-15T13:34:28;37.28;;;26.38;;
1475;SDS011;730;48.870;12.542;2022-12-15T13:37:04;39.28;;;25.40;;
1475;SDS011;730;48.870;12.542;2022-12-15T13:39:51;33.55;;;25.42;;
1475;SDS011;730;48.870;12.542;2022-12-15T13:42:25;36.42;;;25.23;;
1475;SDS011;730;48.870;12.542;2022-12-15T13:44:54;29.73;;;21.20;;
1475;SDS011;730;48.870;12.542;2022-12-15T13:47:29;35.75;;;23.60;;
1475;SDS011;730;48.870;12.542;2022-12-15T13:50:10;34.42;;;22.77;;
1475;SDS011;730;48.870;12.542;2022-12-15T13:55:20;33.63;;;23.40;;
1475;SDS011;730;48.870;12.542;2022-12-15T13:57:54;35.28;;;24.98;;
1475;SDS011;730;48.870;12.542;2022-12-15T14:00:29;59.78;;;35.42;;
1475;SDS011;730;48.870;12.542;2022-12-15T14:03:03;43.10;;;30.02;;
1475;SDS011;730;48.870;12.542;2022-12-15T14:05:36;36.33;;;24.92;;
1475;SDS011;730;48.870;12.542;2022-12-15T14:08:06;36.95;;;25.48;;
1475;SDS011;730;48.870;12.542;2022-12-15T14:10:39;36.33;;;25.42;;
1475;SDS011;730;48.870;12.542;2022-12-15T14:13:21;31.20;;;25.08;;
1475;SDS011;730;48.870;12.542;2022-12-15T14:15:50;39.63;;;29.90;;
1475;SDS011;730;48.870;12.542;2022-12-15T14:18:30;36.08;;;24.77;;
1475;SDS011;730;48.870;12.542;2022-12-15T14:20:59;35.92;;;24.75;;
1475;SDS011;730;48.870;12.542;2022-12-15T14:23:28;33.58;;;23.48;;
1475;SDS011;730;48.870;12.542;2022-12-15T14:26:06;33.47;;;24.48;;
1475;SDS011;730;48.870;12.542;2022-12-15T14:28:36;33.88;;;25.50;;
1475;SDS011;730;48.870;12.542;2022-12-15T14:31:05;33.28;;;24.90;;
1475;SDS011;730;48.870;12.542;2022-12-15T14:33:43;32.58;;;25.15;;
1475;SDS011;730;48.870;12.542;2022-12-15T14:36:11;37.05;;;28.17;;
1475;SDS011;730;48.870;12.542;2022-12-15T14:38:49;35.35;;;24.70;;
1475;SDS011;730;48.870;12.542;2022-12-15T14:41:42;30.70;;;23.17;;
1475;SDS011;730;48.870;12.542;2022-12-15T14:44:19;30.95;;;22.90;;
1475;SDS011;730;48.870;12.542;2022-12-15T14:46:54;33.92;;;22.35;;
1475;SDS011;730;48.870;12.542;2022-12-15T14:49:21;33.35;;;24.55;;
1475;SDS011;730;48.870;12.542;2022-12-15T14:51:51;30.15;;;20.83;;
1475;SDS011;730;48.870;12.542;2022-12-15T14:57:01;35.83;;;25.38;;
1475;SDS011;730;48.870;12.542;2022-12-15T14:59:33;40.28;;;25.13;;
1475;SDS011;730;48.870;12.542;2022-12-15T15:02:11;38.92;;;27.25;;
1475;SDS011;730;48.870;12.542;2022-12-15T15:04:38;35.13;;;24.60;;
1475;SDS011;730;48.870;12.542;2022-12-15T15:07:05;38.90;;;28.30;;
1475;SDS011;730;48.870;12.542;2022-12-15T15:09:40;36.97;;;24.83;;
1475;SDS011;730;48.870;12.542;2022-12-15T15:12:12;40.47;;;27.65;;
1475;SDS011;730;48.870;12.542;2022-12-15T15:20:06;34.75;;;23.98;;
1475;SDS011;730;48.870;12.542;2022-12-15T15:22:47;36.47;;;25.33;;
1475;SDS011;730;48.870;12.542;2022-12-15T15:30:28;43.50;;;29.40;;
1475;SDS011;730;48.870;12.542;2022-12-15T15:33:06;43.20;;;28.33;;
1475;SDS011;730;48.870;12.542;2022-12-15T15:35:33;40.35;;;27.25;;
1475;SDS011;730;48.870;12.542;2022-12-15T15:38:03;36.67;;;28.83;;
1475;SDS011;730;48.870;12.542;2022-12-15T15:40:51;37.10;;;28.92;;
1475;SDS011;730;48.870;12.542;2022-12-15T15:43:23;52.83;;;35.20;;
1475;SDS011;730;48.870;12.542;2022-12-15T15:45:54;46.95;;;34.13;;
1475;SDS011;730;48.870;12.542;2022-12-15T15:48:28;43.70;;;30.13;;
1475;SDS011;730;48.870;12.542;2022-12-15T15:50:56;45.13;;;31.75;;
1475;SDS011;730;48.870;12.542;2022-12-15T15:53:24;40.47;;;28.88;;
1475;SDS011;730;48.870;12.542;2022-12-15T15:55:52;42.97;;;31.05;;
1475;SDS011;730;48.870;12.542;2022-12-15T15:58:19;41.05;;;29.45;;
1475;SDS011;730;48.870;12.542;2022-12-15T16:00:46;37.47;;;26.50;;
1475;SDS011;730;48.870;12.542;2022-12-15T16:03:12;31.90;;;23.52;;
1475;SDS011;730;48.870;12.542;2022-12-15T16:05:38;38.95;;;27.30;;
1475;SDS011;730;48.870;12.542;2022-12-15T16:08:06;37.53;;;26.13;;
1475;SDS011;730;48.870;12.542;2022-12-15T16:10:38;40.50;;;27.92;;
1475;SDS011;730;48.870;12.542;2022-12-15T16:13:08;39.08;;;28.23;;
1475;SDS011;730;48.870;12.542;2022-12-15T16:15:35;33.47;;;25.88;;
1475;SDS011;730;48.870;12.542;2022-12-15T16:18:02;38.35;;;28.30;;
1475;SDS011;730;48.870;12.542;2022-12-15T16:20:28;36.25;;;26.85;;
1475;SDS011;730;48.870;12.542;2022-12-15T16:22:59;33.35;;;25.58;;
1475;SDS011;730;48.870;12.542;2022-12-15T16:25:33;34.45;;;23.02;;
1475;SDS011;730;48.870;12.542;2022-12-15T16:28:02;33.65;;;23.65;;
1475;SDS011;730;48.870;12.542;2022-12-15T16:30:36;30.60;;;24.15;;
1475;SDS011;730;48.870;12.542;2022-12-15T16:33:02;38.50;;;25.45;;
1475;SDS011;730;48.870;12.542;2022-12-15T16:35:28;36.92;;;24.45;;
1475;SDS011;730;48.870;12.542;2022-12-15T16:37:54;32.88;;;25.15;;
1475;SDS011;730;48.870;12.542;2022-12-15T16:40:24;34.10;;;24.52;;
1475;SDS011;730;48.870;12.542;2022-12-15T16:42:53;36.28;;;24.70;;
1475;SDS011;730;48.870;12.542;2022-12-15T16:45:25;38.67;;;26.55;;
1475;SDS011;730;48.870;12.542;2022-12-15T16:47:54;36.38;;;26.52;;
1475;SDS011;730;48.870;12.542;2022-12-15T16:50:23;33.03;;;24.73;;
1475;SDS011;730;48.870;12.542;2022-12-15T16:52:54;39.08;;;25.80;;
1475;SDS011;730;48.870;12.542;2022-12-15T16:55:27;33.63;;;24.70;;
1475;SDS011;730;48.870;12.542;2022-12-15T16:57:56;35.60;;;26.33;;
1475;SDS011;730;48.870;12.542;2022-12-15T17:00:28;39.03;;;28.50;;